Time;durP1;ratioP1;P1;durP2;ratioP2;P2;SDS_P1;SDS_P2;PMS_P1;PMS_P2;Temp;Humidity;BMP_temperature;BMP_pressure;BME280_temperature;BME280_humidity;BME280_pressure;Samples;Min_cycle;Max_cycle;Signal;HPM_P1;HPM_P2
2022/06/11 00:00:34;;;;;;;;;4.25;4.00;;;;;-142.59;100.00;56100.38;5094066;27;50595;-68
2022/06/11 00:03:00;;;;;;;;;4.25;4.25;;;;;-142.59;100.00;56100.38;5094217;27;49588;-70
2022/06/11 00:05:25;;;;;;;;;3.00;3.00;;;;;-142.59;100.00;56100.38;5094056;27;49678;-68
2022/06/11 00:07:51;;;;;;;;;3.50;3.50;;;;;-142.59;100.00;56100.38;5093955;27;49823;-67
2022/06/11 00:10:17;;;;;;;;;5.00;4.50;;;;;-142.59;100.00;56100.38;5094010;27;50742;-68
2022/06/11 00:12:43;;;;;;;;;5.25;5.25;;;;;-142.59;100.00;56100.38;5075546;27;49589;-67
2022/06/11 00:15:08;;;;;;;;;4.00;4.00;;;;;-142.59;100.00;56100.38;5094160;27;50146;-68
2022/06/11 00:17:35;;;;;;;;;4.75;4.75;;;;;-142.59;100.00;56100.38;5094209;27;49609;-68
2022/06/11 00:20:00;;;;;;;;;5.00;3.75;;;;;-142.59;100.00;56100.38;5093888;27;50678;-67
2022/06/11 00:22:26;;;;;;;;;3.50;3.50;;;;;-142.59;100.00;56100.38;5093388;27;49757;-68
2022/06/11 00:24:51;;;;;;;;;3.00;3.00;;;;;-142.59;100.00;56100.38;5088515;27;50010;-67
2022/06/11 00:27:18;;;;;;;;;5.50;4.00;;;;;-142.59;100.00;56100.38;5073074;28;49660;-68
2022/06/11 00:29:44;;;;;;;;;5.00;5.00;;;;;-142.59;100.00;56100.38;5073100;28;51525;-68
2022/06/11 00:32:12;;;;;;;;;5.50;5.00;;;;;-142.59;100.00;56100.38;5073238;28;49702;-67
2022/06/11 00:34:39;;;;;;;;;5.00;5.00;;;;;-142.59;100.00;56100.38;5073483;28;49763;-67
2022/06/11 00:37:05;;;;;;;;;3.75;3.75;;;;;-142.59;100.00;56100.38;5073046;28;49617;-67
2022/06/11 00:39:33;;;;;;;;;7.25;5.50;;;;;-142.59;100.00;56100.38;5073154;28;50482;-67
2022/06/11 00:42:06;;;;;;;;;4.25;4.25;;;;;-142.59;100.00;56100.38;5072982;28;49595;-67
2022/06/11 00:44:32;;;;;;;;;5.00;4.75;;;;;-142.59;100.00;56100.38;5073252;28;49661;-68
2022/06/11 00:47:04;;;;;;;;;6.00;4.00;;;;;-142.59;100.00;56100.38;5073398;28;49843;-68
2022/06/11 00:49:38;;;;;;;;;7.00;5.25;;;;;-142.59;100.00;56100.38;5072954;28;49843;-68
2022/06/11 00:52:29;;;;;;;;;5.00;5.00;;;;;-142.59;100.00;56100.38;5072569;28;49901;-68
2022/06/11 00:55:04;;;;;;;;;4.25;4.25;;;;;-142.59;100.00;56100.38;5073129;28;49771;-67
2022/06/11 00:57:33;;;;;;;;;4.50;4.50;;;;;-142.59;100.00;56100.38;5075575;28;49655;-68
2022/06/11 01:00:09;;;;;;;;;6.25;6.25;;;;;-142.59;100.00;56100.38;5076319;28;49680;-68
2022/06/11 01:02:35;;;;;;;;;4.00;4.00;;;;;-142.59;100.00;56100.38;5076270;28;49731;-70
2022/06/11 01:05:03;;;;;;;;;5.75;5.00;;;;;-142.59;100.00;56100.38;5076572;28;49581;-67
2022/06/11 01:07:45;;;;;;;;;5.00;5.00;;;;;-142.59;100.00;56100.38;5076452;28;49791;-68
2022/06/11 01:10:36;;;;;;;;;6.00;4.75;;;;;-142.59;100.00;56100.38;5076367;28;50488;-68
2022/06/11 01:13:19;;;;;;;;;7.50;6.00;;;;;-142.59;100.00;56100.38;5075939;28;49629;-67
2022/06/11 01:15:49;;;;;;;;;7.00;5.25;;;;;-142.59;100.00;56100.38;5076452;28;49680;-67
2022/06/11 01:18:40;;;;;;;;;6.75;5.25;;;;;-142.59;100.00;56100.38;5076658;27;49650;-68
2022/06/11 01:21:08;;;;;;;;;7.75;6.50;;;;;-142.59;100.00;56100.38;5076112;28;50349;-69
2022/06/11 01:23:33;;;;;;;;;9.00;7.25;;;;;-142.59;100.00;56100.38;5057842;28;49696;-73
2022/06/11 01:26:35;;;;;;;;;7.00;6.00;;;;;-142.59;100.00;56100.38;5075980;28;49568;-67
2022/06/11 01:29:20;;;;;;;;;7.00;5.00;;;;;-142.59;100.00;56100.38;5058222;27;50202;-67
2022/06/11 01:31:50;;;;;;;;;10.25;6.50;;;;;-142.59;100.00;56100.38;5024153;28;49703;-68
2022/06/11 01:34:29;;;;;;;;;6.00;6.00;;;;;-142.59;100.00;56100.38;5075853;28;49557;-68
2022/06/11 01:37:06;;;;;;;;;6.00;4.25;;;;;-142.59;100.00;56100.38;5076038;28;49695;-69
2022/06/11 01:39:38;;;;;;;;;5.25;5.25;;;;;-142.59;100.00;56100.38;5075742;28;49976;-68
2022/06/11 01:42:12;;;;;;;;;5.00;5.00;;;;;-142.59;100.00;56100.38;5075306;28;51109;-68
2022/06/11 01:44:40;;;;;;;;;6.25;5.00;;;;;-142.59;100.00;56100.38;5075885;28;49677;-68
2022/06/11 01:47:06;;;;;;;;;5.50;5.00;;;;;-142.59;100.00;56100.38;5075645;28;49636;-69
2022/06/11 01:49:45;;;;;;;;;7.00;7.00;;;;;-142.59;100.00;56100.38;5075671;28;49857;-67
2022/06/11 01:52:28;;;;;;;;;5.75;4.75;;;;;-142.59;100.00;56100.38;5074991;28;50648;-67
2022/06/11 01:55:24;;;;;;;;;6.75;5.50;;;;;-142.59;100.00;56100.38;5075605;28;50402;-67
2022/06/11 01:58:01;;;;;;;;;6.00;5.50;;;;;-142.59;100.00;56100.38;5075525;28;49632;-69
2022/06/11 02:00:35;;;;;;;;;8.00;7.00;;;;;-142.59;100.00;56100.38;5075783;27;49856;-67
2022/06/11 02:03:13;;;;;;;;;5.75;5.75;;;;;-142.59;100.00;56100.38;5075485;28;49732;-67
2022/06/11 02:05:49;;;;;;;;;5.00;5.00;;;;;-142.59;100.00;56100.38;5075122;28;49689;-67
2022/06/11 02:08:20;;;;;;;;;8.50;7.00;;;;;-142.59;100.00;56100.38;5074265;28;49915;-66
2022/06/11 02:10:56;;;;;;;;;7.50;7.00;;;;;-142.59;100.00;56100.38;5075204;27;49737;-67
2022/06/11 02:13:34;;;;;;;;;5.25;5.25;;;;;-142.59;100.00;56100.38;5060272;28;50534;-67
2022/06/11 02:16:14;;;;;;;;;6.75;6.75;;;;;-142.59;100.00;56100.38;5075262;28;49444;-67
2022/06/11 02:18:41;;;;;;;;;6.50;6.50;;;;;-142.59;100.00;56100.38;5075502;28;49818;-67
2022/06/11 02:21:11;;;;;;;;;7.50;6.75;;;;;-142.59;100.00;56100.38;5074976;27;49915;-68
2022/06/11 02:23:41;;;;;;;;;7.25;6.00;;;;;-142.59;100.00;56100.38;5071413;28;51176;-67
2022/06/11 02:26:23;;;;;;;;;6.75;6.00;;;;;-142.59;100.00;56100.38;5075336;28;49759;-67
2022/06/11 02:28:50;;;;;;;;;6.75;6.75;;;;;-142.59;100.00;56100.38;5075365;28;49879;-67
2022/06/11 02:31:23;;;;;;;;;10.50;8.00;;;;;-142.59;100.00;56100.38;5075156;28;49787;-67
2022/06/11 02:33:49;;;;;;;;;7.00;6.25;;;;;-142.59;100.00;56100.38;5074515;28;50348;-68
2022/06/11 02:36:20;;;;;;;;;5.50;5.50;;;;;-142.59;100.00;56100.38;5074930;27;49819;-67
2022/06/11 02:38:46;;;;;;;;;7.75;7.75;;;;;-142.59;100.00;56100.38;5074936;28;50117;-67
2022/06/11 02:41:18;;;;;;;;;5.00;5.00;;;;;-142.59;100.00;56100.38;5075097;28;49640;-67
2022/06/11 02:43:44;;;;;;;;;8.25;6.75;;;;;-142.59;100.00;56100.38;5074520;28;50545;-68
2022/06/11 02:48:55;;;;;;;;;6.25;5.25;;;;;-142.59;100.00;56100.38;5074982;28;49660;-67
2022/06/11 02:51:23;;;;;;;;;7.25;6.75;;;;;-142.59;100.00;56100.38;5074693;27;49850;-67
2022/06/11 02:53:49;;;;;;;;;5.50;5.50;;;;;-142.59;100.00;56100.38;5074115;28;49790;-67
2022/06/11 02:56:15;;;;;;;;;6.00;6.00;;;;;-142.59;100.00;56100.38;5074586;28;49733;-67
2022/06/11 02:58:41;;;;;;;;;7.25;7.25;;;;;-142.59;100.00;56100.38;5074705;27;49752;-67
2022/06/11 03:01:07;;;;;;;;;5.75;5.00;;;;;-142.59;100.00;56100.38;5074563;28;49842;-68
2022/06/11 03:03:33;;;;;;;;;7.25;7.25;;;;;-142.59;100.00;56100.38;5074448;28;50710;-68
2022/06/11 03:05:59;;;;;;;;;7.00;5.50;;;;;-142.59;100.00;56100.38;5074596;28;49623;-67
2022/06/11 03:08:25;;;;;;;;;6.50;5.25;;;;;-142.59;100.00;56100.38;5074121;27;49663;-67
2022/06/11 03:10:54;;;;;;;;;11.50;7.50;;;;;-142.59;100.00;56100.38;5074626;28;49668;-67
2022/06/11 03:13:21;;;;;;;;;7.00;7.00;;;;;-142.59;100.00;56100.38;5074321;28;49647;-67
2022/06/11 03:15:46;;;;;;;;;8.00;8.00;;;;;-142.59;100.00;56100.38;5073739;28;49787;-67
2022/06/11 03:18:12;;;;;;;;;7.75;7.00;;;;;-142.59;100.00;56100.38;5074289;28;49974;-68
2022/06/11 03:20:37;;;;;;;;;7.25;7.00;;;;;-142.59;100.00;56100.38;5073310;28;50049;-69
2022/06/11 03:23:02;;;;;;;;;9.00;7.75;;;;;-142.59;100.00;56100.38;5073601;28;49891;-68
2022/06/11 03:25:28;;;;;;;;;9.00;8.00;;;;;-142.59;100.00;56100.38;5074132;27;49776;-68
2022/06/11 03:27:54;;;;;;;;;5.50;5.50;;;;;-142.59;100.00;56100.38;5074399;28;50068;-69
2022/06/11 03:30:20;;;;;;;;;6.75;6.75;;;;;-142.59;100.00;56100.38;5074613;28;49994;-68
2022/06/11 03:32:45;;;;;;;;;8.00;6.00;;;;;-142.59;100.00;56100.38;5073975;28;50659;-67
2022/06/11 03:35:12;;;;;;;;;9.00;8.00;;;;;-142.59;100.00;56100.38;5073731;28;49657;-69
2022/06/11 03:37:38;;;;;;;;;6.50;5.75;;;;;-142.59;100.00;56100.38;5073789;28;49850;-69
2022/06/11 03:40:03;;;;;;;;;11.50;7.00;;;;;-142.59;100.00;56100.38;5074265;28;49507;-68
2022/06/11 03:42:29;;;;;;;;;7.00;6.00;;;;;-142.59;100.00;56100.38;5073779;27;49818;-68
2022/06/11 03:44:54;;;;;;;;;7.25;7.25;;;;;-142.59;100.00;56100.38;5074048;28;49833;-69
2022/06/11 03:47:20;;;;;;;;;8.50;8.50;;;;;-142.59;100.00;56100.38;5073589;28;49922;-69
2022/06/11 03:49:46;;;;;;;;;6.00;6.00;;;;;-142.59;100.00;56100.38;5074278;28;49759;-69
2022/06/11 03:52:12;;;;;;;;;8.00;7.75;;;;;-142.59;100.00;56100.38;5072892;28;50487;-68
2022/06/11 03:54:38;;;;;;;;;7.25;7.25;;;;;-142.59;100.00;56100.38;5073738;28;49787;-68
2022/06/11 03:57:04;;;;;;;;;7.75;7.75;;;;;-142.59;100.00;56100.38;5074122;28;49958;-67
2022/06/11 03:59:30;;;;;;;;;7.25;7.00;;;;;-142.59;100.00;56100.38;5073408;27;49848;-68
2022/06/11 04:01:55;;;;;;;;;9.25;9.00;;;;;-142.59;100.00;56100.38;5065117;28;50772;-67
2022/06/11 04:04:21;;;;;;;;;7.00;6.75;;;;;-142.59;100.00;56100.38;5053475;28;50145;-68
2022/06/11 04:06:56;;;;;;;;;11.25;10.50;;;;;-142.59;100.00;56100.38;5053397;28;49821;-68
2022/06/11 04:09:31;;;;;;;;;11.00;9.75;;;;;-142.59;100.00;56100.38;5035442;28;49788;-67
2022/06/11 04:11:58;;;;;;;;;8.75;7.25;;;;;-142.59;100.00;56100.38;5067927;28;49841;-67
2022/06/11 04:14:23;;;;;;;;;8.25;8.25;;;;;-142.59;100.00;56100.38;5073550;27;49788;-68
2022/06/11 04:16:53;;;;;;;;;7.50;7.50;;;;;-142.59;100.00;56100.38;5073931;28;50578;-67
2022/06/11 04:19:23;;;;;;;;;6.25;6.25;;;;;-142.59;100.00;56100.38;5073711;28;49622;-67
2022/06/11 04:21:49;;;;;;;;;9.00;7.00;;;;;-142.59;100.00;56100.38;5073027;27;50484;-67
2022/06/11 04:24:15;;;;;;;;;9.75;9.50;;;;;-142.59;100.00;56100.38;5073463;28;49755;-67
2022/06/11 04:26:43;;;;;;;;;7.75;7.75;;;;;-142.59;100.00;56100.38;5072928;28;49890;-68
2022/06/11 04:29:12;;;;;;;;;8.25;7.50;;;;;-142.59;100.00;56100.38;5073736;28;50306;-68
2022/06/11 04:31:39;;;;;;;;;8.25;7.00;;;;;-142.59;100.00;56100.38;5074247;28;50762;-67
2022/06/11 04:34:05;;;;;;;;;7.25;7.25;;;;;-142.59;100.00;56100.38;5076919;28;49865;-68
2022/06/11 04:36:33;;;;;;;;;8.75;8.00;;;;;-142.59;100.00;56100.38;5076905;28;49671;-67
2022/06/11 04:38:58;;;;;;;;;10.00;9.00;;;;;-142.59;100.00;56100.38;5076874;27;49694;-67
2022/06/11 04:41:25;;;;;;;;;8.00;5.75;;;;;-142.59;100.00;56100.38;5076477;27;49806;-68
2022/06/11 04:43:51;;;;;;;;;8.75;7.00;;;;;-142.59;100.00;56100.38;5076733;28;49823;-67
2022/06/11 04:46:17;;;;;;;;;10.50;9.00;;;;;-142.59;100.00;56100.38;5076926;28;49812;-67
2022/06/11 04:48:43;;;;;;;;;8.50;8.50;;;;;-142.59;100.00;56100.38;5076836;28;49900;-68
2022/06/11 04:51:09;;;;;;;;;5.25;5.25;;;;;-142.59;100.00;56100.38;5076427;28;49582;-67
2022/06/11 04:53:35;;;;;;;;;7.00;7.00;;;;;-142.59;100.00;56100.38;5076061;28;49814;-67
2022/06/11 04:56:00;;;;;;;;;11.50;9.00;;;;;-142.59;100.00;56100.38;5076663;28;49592;-67
2022/06/11 04:58:26;;;;;;;;;9.00;8.75;;;;;-142.59;100.00;56100.38;5076558;28;49692;-67
2022/06/11 05:00:52;;;;;;;;;6.50;5.25;;;;;-142.59;100.00;56100.38;5076329;28;50945;-67
2022/06/11 05:03:17;;;;;;;;;8.25;7.25;;;;;-142.59;100.00;56100.38;5076437;27;49945;-67
2022/06/11 05:05:43;;;;;;;;;8.00;8.00;;;;;-142.59;100.00;56100.38;5076514;28;49794;-67
2022/06/11 05:08:11;;;;;;;;;6.75;6.75;;;;;-142.59;100.00;56100.38;5076501;28;49914;-67
2022/06/11 05:10:36;;;;;;;;;9.00;9.00;;;;;-142.59;100.00;56100.38;5076301;28;50796;-68
2022/06/11 05:13:04;;;;;;;;;8.00;8.00;;;;;-142.59;100.00;56100.38;5076321;27;49624;-67
2022/06/11 05:15:30;;;;;;;;;9.25;9.25;;;;;-142.59;100.00;56100.38;5076634;28;49822;-67
2022/06/11 05:17:56;;;;;;;;;8.00;8.00;;;;;-142.59;100.00;56100.38;5076276;28;49680;-67
2022/06/11 05:20:22;;;;;;;;;7.25;7.25;;;;;-142.59;100.00;56100.38;5075719;27;51432;-68
2022/06/11 05:22:48;;;;;;;;;8.25;8.25;;;;;-142.59;100.00;56100.38;5075944;28;49705;-68
2022/06/11 05:25:16;;;;;;;;;9.00;9.00;;;;;-142.59;100.00;56100.38;5075859;28;49747;-69
2022/06/11 05:27:43;;;;;;;;;8.25;6.25;;;;;-142.59;100.00;56100.38;5076408;28;49716;-67
2022/06/11 05:30:15;;;;;;;;;8.25;8.25;;;;;-142.59;100.00;56100.38;5075871;28;50391;-67
2022/06/11 05:32:42;;;;;;;;;6.75;6.50;;;;;-142.59;100.00;56100.38;5074877;28;49882;-68
2022/06/11 05:35:12;;;;;;;;;7.75;7.25;;;;;-142.59;100.00;56100.38;5075900;28;49542;-68
2022/06/11 05:37:38;;;;;;;;;10.25;9.75;;;;;-142.59;100.00;56100.38;5076043;28;49881;-68
2022/06/11 05:40:06;;;;;;;;;10.00;7.50;;;;;-142.59;100.00;56100.38;5075876;28;49875;-68
2022/06/11 05:42:31;;;;;;;;;9.00;7.75;;;;;-142.59;100.00;56100.38;5075239;28;49906;-69
2022/06/11 05:44:56;;;;;;;;;10.25;10.25;;;;;-142.59;100.00;56100.38;5074544;27;49813;-68
2022/06/11 05:47:25;;;;;;;;;8.25;8.25;;;;;-142.59;100.00;56100.38;5060350;28;49652;-74
2022/06/11 05:49:55;;;;;;;;;10.00;8.00;;;;;-142.59;100.00;56100.38;5057107;28;50971;-72
2022/06/11 05:52:26;;;;;;;;;7.25;7.25;;;;;-142.59;100.00;56100.38;5075435;28;49675;-74
2022/06/11 05:54:54;;;;;;;;;10.00;6.50;;;;;-142.59;100.00;56100.38;5075452;27;49788;-75
2022/06/11 05:57:23;;;;;;;;;6.50;6.25;;;;;-142.59;100.00;56100.38;5057321;28;49807;-71
2022/06/11 05:59:53;;;;;;;;;5.00;5.00;;;;;-142.59;100.00;56100.38;5075144;28;50522;-71
2022/06/11 06:02:22;;;;;;;;;8.50;6.00;;;;;-142.59;100.00;56100.38;5075242;28;49595;-72
2022/06/11 06:04:47;;;;;;;;;6.75;4.00;;;;;-142.59;100.00;56100.38;5075523;28;49726;-72
2022/06/11 06:07:13;;;;;;;;;6.75;3.50;;;;;-142.59;100.00;56100.38;5075281;28;50006;-71
2022/06/11 06:09:38;;;;;;;;;7.00;5.25;;;;;-142.59;100.00;56100.38;5073854;28;51454;-70
2022/06/11 06:12:05;;;;;;;;;3.75;3.75;;;;;-142.59;100.00;56100.38;5075293;28;49607;-72
2022/06/11 06:14:31;;;;;;;;;7.25;6.25;;;;;-142.59;100.00;56100.38;5075117;28;49622;-71
2022/06/11 06:16:56;;;;;;;;;6.00;6.00;;;;;-142.59;100.00;56100.38;5075073;28;49877;-71
2022/06/11 06:19:22;;;;;;;;;7.50;5.00;;;;;-142.59;100.00;56100.38;5074712;28;50275;-73
2022/06/11 06:21:47;;;;;;;;;3.25;3.25;;;;;-142.59;100.00;56100.38;5056700;28;49796;-73
2022/06/11 06:24:13;;;;;;;;;8.50;7.75;;;;;-142.59;100.00;56100.38;5074850;27;49735;-73
2022/06/11 06:26:39;;;;;;;;;5.00;4.00;;;;;-142.59;100.00;56100.38;5075008;28;49686;-73
2022/06/11 06:29:05;;;;;;;;;5.00;4.25;;;;;-142.59;100.00;56100.38;5074565;28;50635;-73
2022/06/11 06:31:31;;;;;;;;;8.00;7.25;;;;;-142.59;100.00;56100.38;5074650;28;49744;-73
2022/06/11 06:33:59;;;;;;;;;5.00;4.75;;;;;-142.59;100.00;56100.38;5074971;28;49662;-72
2022/06/11 06:36:25;;;;;;;;;6.00;5.00;;;;;-142.59;100.00;56100.38;5074990;28;49586;-73
2022/06/11 06:38:51;;;;;;;;;5.25;5.25;;;;;-142.59;100.00;56100.38;5074255;28;49846;-72
2022/06/11 06:41:17;;;;;;;;;6.50;5.00;;;;;-142.59;100.00;56100.38;5073551;28;49634;-71
2022/06/11 06:43:43;;;;;;;;;5.75;5.00;;;;;-142.59;100.00;56100.38;5072504;28;49729;-70
2022/06/11 06:46:09;;;;;;;;;8.25;5.75;;;;;-142.59;100.00;56100.38;5073752;28;49893;-69
2022/06/11 06:48:35;;;;;;;;;6.75;5.75;;;;;-142.59;100.00;56100.38;5074118;28;50027;-69
2022/06/11 06:51:01;;;;;;;;;4.50;3.50;;;;;-142.59;100.00;56100.38;5074013;28;49926;-69
2022/06/11 06:53:27;;;;;;;;;5.25;5.25;;;;;-142.59;100.00;56100.38;5074713;28;49606;-71
2022/06/11 06:55:53;;;;;;;;;5.50;5.00;;;;;-142.59;100.00;56100.38;5074482;27;49735;-69
2022/06/11 06:58:18;;;;;;;;;5.50;3.00;;;;;-142.59;100.00;56100.38;5074628;28;49614;-70
2022/06/11 07:00:45;;;;;;;;;5.50;5.25;;;;;-142.59;100.00;56100.38;5056616;28;49629;-68
2022/06/11 07:03:12;;;;;;;;;4.00;3.00;;;;;-142.59;100.00;56100.38;5073546;28;49781;-69
2022/06/11 07:05:38;;;;;;;;;3.00;3.00;;;;;-142.59;100.00;56100.38;5075017;27;49675;-69
2022/06/11 07:08:05;;;;;;;;;5.25;4.00;;;;;-142.59;100.00;56100.38;5055996;27;50866;-72
2022/06/11 07:10:31;;;;;;;;;4.75;3.75;;;;;-142.59;100.00;56100.38;5074180;28;49858;-70
2022/06/11 07:12:57;;;;;;;;;3.00;2.25;;;;;-142.59;100.00;56100.38;5074455;28;49755;-75
2022/06/11 07:15:22;;;;;;;;;1.00;1.00;;;;;-142.59;100.00;56100.38;5074607;28;49707;-70
2022/06/11 07:18:18;;;;;;;;;2.25;2.25;;;;;-142.59;100.00;56100.38;5074261;28;49528;-67
2022/06/11 07:20:46;;;;;;;;;1.00;1.00;;;;;-142.59;100.00;56100.38;5074302;28;49624;-71
2022/06/11 07:23:25;;;;;;;;;4.50;3.50;;;;;-142.59;100.00;56100.38;5074353;28;49860;-71
2022/06/11 07:25:55;;;;;;;;;2.00;2.00;;;;;-142.59;100.00;56100.38;5073987;27;49842;-70
2022/06/11 07:28:29;;;;;;;;;7.50;3.00;;;;;-142.59;100.00;56100.38;5074117;28;50647;-70
2022/06/11 07:30:55;;;;;;;;;2.75;1.25;;;;;-142.59;100.00;56100.38;5074043;27;49803;-70
2022/06/11 07:33:25;;;;;;;;;2.75;2.75;;;;;-142.59;100.00;56100.38;5074228;28;49807;-69
2022/06/11 07:35:52;;;;;;;;;2.50;2.00;;;;;-142.59;100.00;56100.38;5074364;27;49795;-71
2022/06/11 07:38:19;;;;;;;;;2.00;2.00;;;;;-142.59;100.00;56100.38;5073986;27;49689;-69
2022/06/11 07:40:45;;;;;;;;;5.00;3.00;;;;;-142.59;100.00;56100.38;5073909;27;49949;-70
2022/06/11 07:43:10;;;;;;;;;1.75;1.00;;;;;-142.59;100.00;56100.38;5073785;28;49533;-70
2022/06/11 07:45:38;;;;;;;;;2.00;2.00;;;;;-142.59;100.00;56100.38;5074057;27;49763;-70
2022/06/11 07:48:04;;;;;;;;;3.25;2.50;;;;;-142.59;100.00;56100.38;5073896;27;50643;-69
2022/06/11 07:50:37;;;;;;;;;5.00;3.75;;;;;-142.59;100.00;56100.38;5073514;28;49800;-71
2022/06/11 07:53:04;;;;;;;;;2.25;1.75;;;;;-142.59;100.00;56100.38;5073734;28;49690;-70
2022/06/11 07:55:31;;;;;;;;;2.75;2.75;;;;;-142.59;100.00;56100.38;5074009;27;49620;-70
2022/06/11 07:57:57;;;;;;;;;4.25;4.00;;;;;-142.59;100.00;56100.38;5073489;28;50517;-70
2022/06/11 08:00:30;;;;;;;;;3.50;2.00;;;;;-142.59;100.00;56100.38;5073643;27;49741;-70
2022/06/11 08:02:56;;;;;;;;;4.50;3.75;;;;;-142.59;100.00;56100.38;5073770;28;49804;-69
2022/06/11 08:05:22;;;;;;;;;6.00;2.50;;;;;-142.59;100.00;56100.38;5073721;27;49545;-70
2022/06/11 08:07:48;;;;;;;;;3.00;2.25;;;;;-142.59;100.00;56100.38;5072651;28;50536;-70
2022/06/11 08:10:15;;;;;;;;;1.25;1.25;;;;;-142.59;100.00;56100.38;5073538;27;49862;-68
2022/06/11 08:12:40;;;;;;;;;5.00;3.25;;;;;-142.59;100.00;56100.38;5073525;28;49937;-66
2022/06/11 08:15:07;;;;;;;;;4.00;4.00;;;;;-142.59;100.00;56100.38;5072473;28;49673;-68
2022/06/11 08:17:34;;;;;;;;;2.25;2.25;;;;;-142.59;100.00;56100.38;5073328;28;49750;-67
2022/06/11 08:20:01;;;;;;;;;3.25;2.75;;;;;-142.59;100.00;56100.38;5073412;28;49627;-69
2022/06/11 08:22:26;;;;;;;;;2.25;2.25;;;;;-142.59;100.00;56100.38;5073429;28;49876;-68
2022/06/11 08:24:52;;;;;;;;;4.25;3.00;;;;;-142.59;100.00;56100.38;5073339;28;49616;-73
2022/06/11 08:27:18;;;;;;;;;2.50;2.50;;;;;-142.59;100.00;56100.38;5073391;27;49858;-73
2022/06/11 08:29:45;;;;;;;;;3.25;3.25;;;;;-142.59;100.00;56100.38;5072003;27;49808;-70
2022/06/11 08:32:10;;;;;;;;;4.00;3.00;;;;;-142.59;100.00;56100.38;5073542;28;49935;-73
2022/06/11 08:34:41;;;;;;;;;5.75;4.00;;;;;-142.59;100.00;56100.38;5073502;28;49814;-72
2022/06/11 08:37:08;;;;;;;;;3.00;3.00;;;;;-142.59;100.00;56100.38;5073030;27;49684;-73
2022/06/11 08:39:34;;;;;;;;;3.00;2.25;;;;;-142.59;100.00;56100.38;5072829;28;49863;-73
2022/06/11 08:42:01;;;;;;;;;3.50;3.50;;;;;-142.59;100.00;56100.38;5073154;28;49568;-71
2022/06/11 08:44:29;;;;;;;;;4.25;4.25;;;;;-142.59;100.00;56100.38;5054943;28;49933;-69
2022/06/11 08:46:59;;;;;;;;;6.75;5.50;;;;;-142.59;100.00;56100.38;5054772;28;49951;-75
2022/06/11 08:49:33;;;;;;;;;5.75;4.50;;;;;-142.59;100.00;56100.38;5073124;28;49716;-75
2022/06/11 08:52:24;;;;;;;;;4.25;4.25;;;;;-142.59;100.00;56100.38;5071487;28;49704;-76
2022/06/11 08:54:50;;;;;;;;;4.25;4.25;;;;;-142.59;100.00;56100.38;5073114;28;49674;-76
2022/06/11 08:57:43;;;;;;;;;6.25;5.00;;;;;-142.59;100.00;56100.38;5071397;27;50546;-76
2022/06/11 09:00:19;;;;;;;;;4.25;4.25;;;;;-142.59;100.00;56100.38;5073163;28;49801;-76
2022/06/11 09:03:10;;;;;;;;;6.75;4.75;;;;;-142.59;100.00;56100.38;5072955;28;49828;-76
2022/06/11 09:05:47;;;;;;;;;5.00;5.00;;;;;-142.59;100.00;56100.38;5073015;28;49747;-75
2022/06/11 09:08:31;;;;;;;;;4.25;4.00;;;;;-142.59;100.00;56100.38;5072647;28;50455;-74
2022/06/11 09:10:59;;;;;;;;;5.00;5.00;;;;;-142.59;100.00;56100.38;5072586;28;49859;-74
2022/06/11 09:13:50;;;;;;;;;6.00;4.00;;;;;-142.59;100.00;56100.38;5072771;28;49612;-75
2022/06/11 09:16:27;;;;;;;;;6.75;5.00;;;;;-142.59;100.00;56100.38;5072991;28;49853;-75
2022/06/11 09:19:01;;;;;;;;;6.50;5.00;;;;;-142.59;100.00;56100.38;5073898;27;52464;-74
2022/06/11 09:21:29;;;;;;;;;2.25;2.25;;;;;-142.59;100.00;56100.38;5075987;27;49843;-75
2022/06/11 09:24:24;;;;;;;;;4.00;3.75;;;;;-142.59;100.00;56100.38;5074582;28;49941;-75
2022/06/11 09:27:05;;;;;;;;;4.00;4.00;;;;;-142.59;100.00;56100.38;5077181;28;49750;-79
2022/06/11 09:29:46;;;;;;;;;4.50;4.25;;;;;-142.59;100.00;56100.38;5077398;27;50547;-85
2022/06/11 09:32:27;;;;;;;;;5.00;5.00;;;;;-142.59;100.00;56100.38;5077125;27;49735;-80
2022/06/11 09:35:01;;;;;;;;;5.50;3.75;;;;;-142.59;100.00;56100.38;5077512;28;49675;-84
2022/06/11 09:37:40;;;;;;;;;3.50;3.50;;;;;-142.59;100.00;56100.38;5076498;28;49926;-85
2022/06/11 09:40:24;;;;;;;;;4.75;4.00;;;;;-142.59;100.00;56100.38;5074099;27;50789;-78
2022/06/11 09:43:20;;;;;;;;;3.00;3.00;;;;;-142.59;100.00;56100.38;5076041;28;49819;-82
2022/06/11 09:46:04;;;;;;;;;3.50;3.50;;;;;-142.59;100.00;56100.38;5074948;27;49921;-72
2022/06/11 09:48:35;;;;;;;;;7.00;6.75;;;;;-142.59;100.00;56100.38;5074003;28;49734;-72
2022/06/11 09:51:08;;;;;;;;;3.25;3.25;;;;;-142.59;100.00;56100.38;5075044;28;50741;-72
2022/06/11 09:53:55;;;;;;;;;4.75;2.00;;;;;-142.59;100.00;56100.38;5075103;28;49722;-70
2022/06/11 09:56:47;;;;;;;;;4.00;2.25;;;;;-142.59;100.00;56100.38;5075464;28;49736;-69
2022/06/11 09:59:44;;;;;;;;;5.00;5.00;;;;;-142.59;100.00;56100.38;5075793;28;49621;-71
2022/06/11 10:02:33;;;;;;;;;6.50;4.50;;;;;-142.59;100.00;56100.38;5075350;28;50338;-70
2022/06/11 10:05:05;;;;;;;;;4.50;4.50;;;;;-142.59;100.00;56100.38;5075366;28;49936;-71
2022/06/11 10:07:37;;;;;;;;;4.50;4.25;;;;;-142.59;100.00;56100.38;5075047;28;49809;-70
2022/06/11 10:10:27;;;;;;;;;2.75;1.75;;;;;-142.59;100.00;56100.38;5075550;28;49778;-70
2022/06/11 10:13:00;;;;;;;;;4.75;4.75;;;;;-142.59;100.00;56100.38;5066324;27;50544;-70
2022/06/11 10:15:38;;;;;;;;;4.75;4.75;;;;;-142.59;100.00;56100.38;5075424;28;49734;-70
2022/06/11 10:18:45;;;;;;;;;3.75;3.75;;;;;-142.59;100.00;56100.38;5075250;28;49696;-70
2022/06/11 10:21:18;;;;;;;;;5.75;5.00;;;;;-142.59;100.00;56100.38;5071247;28;49925;-69
2022/06/11 10:23:56;;;;;;;;;4.75;3.75;;;;;-142.59;100.00;56100.38;5074686;27;50657;-70
2022/06/11 10:26:40;;;;;;;;;5.75;4.75;;;;;-142.59;100.00;56100.38;5056860;28;49693;-69
2022/06/11 10:29:23;;;;;;;;;8.00;7.25;;;;;-142.59;100.00;56100.38;5074696;28;49660;-68
2022/06/11 10:31:58;;;;;;;;;5.50;5.00;;;;;-142.59;100.00;56100.38;5074332;27;49787;-69
2022/06/11 10:34:28;;;;;;;;;4.00;4.00;;;;;-142.59;100.00;56100.38;5065204;28;50568;-69
2022/06/11 10:36:59;;;;;;;;;4.50;4.50;;;;;-142.59;100.00;56100.38;5074857;28;49469;-69
2022/06/11 10:39:45;;;;;;;;;3.50;3.50;;;;;-142.59;100.00;56100.38;5054903;28;49812;-68
2022/06/11 10:42:13;;;;;;;;;4.25;4.25;;;;;-142.59;100.00;56100.38;5054807;28;49720;-73
2022/06/11 10:44:44;;;;;;;;;5.00;5.00;;;;;-142.59;100.00;56100.38;5070670;28;50635;-74
2022/06/11 10:47:18;;;;;;;;;3.00;3.00;;;;;-142.59;100.00;56100.38;5065839;28;49822;-73
2022/06/11 10:49:46;;;;;;;;;3.00;3.00;;;;;-142.59;100.00;56100.38;5074909;28;49720;-71
2022/06/11 10:52:34;;;;;;;;;3.75;2.50;;;;;-142.59;100.00;56100.38;5074981;28;49666;-75
2022/06/11 10:54:59;;;;;;;;;2.75;2.75;;;;;-142.59;100.00;56100.38;5053660;28;49745;-70
2022/06/11 10:57:27;;;;;;;;;14.75;14.75;;;;;-142.59;100.00;56100.38;5071889;28;49654;-71
2022/06/11 11:00:05;;;;;;;;;24.50;24.00;;;;;-142.59;100.00;56100.38;5074469;28;49755;-68
2022/06/11 11:02:48;;;;;;;;;6.00;6.00;;;;;-142.59;100.00;56100.38;5074848;28;50038;-73
2022/06/11 11:05:18;;;;;;;;;3.25;2.00;;;;;-142.59;100.00;56100.38;5074558;28;50986;-72
2022/06/11 11:07:51;;;;;;;;;2.50;2.50;;;;;-142.59;100.00;56100.38;5073110;27;49843;-74
2022/06/11 11:10:25;;;;;;;;;3.25;3.25;;;;;-142.59;100.00;56100.38;5080521;27;49820;-74
2022/06/11 11:12:59;;;;;;;;;3.00;3.00;;;;;-142.59;100.00;56100.38;5062982;28;49843;-74
2022/06/11 11:15:28;;;;;;;;;3.25;3.25;;;;;-142.59;100.00;56100.38;5076910;27;49779;-76
2022/06/11 11:18:09;;;;;;;;;6.00;4.25;;;;;-142.59;100.00;56100.38;5083037;27;49809;-71
2022/06/11 11:20:39;;;;;;;;;3.00;3.00;;;;;-142.59;100.00;56100.38;5057861;28;49813;-72
2022/06/11 11:23:06;;;;;;;;;2.50;2.50;;;;;-142.59;100.00;56100.38;5073446;28;49803;-81
2022/06/11 11:25:50;;;;;;;;;5.25;3.50;;;;;-142.59;100.00;56100.38;5073604;27;49841;-76
2022/06/11 11:28:29;;;;;;;;;4.00;4.00;;;;;-142.59;100.00;56100.38;5072869;27;49849;-77